Aviation Digital Data Service (ADDS)

Output produced by METARs form (1506 UTC 26 April 2018)
found at http://aviationweather.gov/adds/metars/
 
WADL 261500Z 09002KT 8000 FEW016 26/24 Q1012 NOSIG
WADL 261430Z 08002KT 8000 FEW016 26/24 Q1012 NOSIG
WADL 261400Z 09003KT 8000 FEW016 26/24 Q1012 NOSIG
WADL 261330Z 00000KT 8000 BKN016 26/24 Q1012 NOSIG
WADL 261300Z VRB01KT 8000 BKN016 26/24 Q1012 NOSIG
WADL 261230Z 21003KT 170V230 8000 BKN016 26/23 Q1011 NOSIG